Latest Weather Observations for Braidwood

IDN60801

Issued at 9:02 pm EST Saturday 25 April 2015 (issued every 30 minutes, with the page automatically refreshed every 10 minutes)

About weather observations | Map of weather stations | Latest weather observations for NSW | Other Formats
Station Details ID: 069132 Name: BRAIDWOOD RACECOURSE AWS Lat: -35.43 Lon: 149.78 Height: 665.2 m
Data from the previous 72 hours. | See also: Recent months at Braidwood
Date/Time
EST
Temp
°C
App
Temp
°C
Dew
Point
Rel
Hum
%
Delta-T
°C
Wind Press
QNH
hPa
Press
MSL
hPa
Rain
since 9 am
mm
Dir
 
Spd
km/h
Gust
km/h
Spd
kts
Gust
kts
25/08:30pm 7.5 5.6 6.8 95 0.3 SE 6 9 3 5 1009.0 1008.0 11.4
25/08:00pm 7.4 6.7 6.8 96 0.3 CALM 0 0 0 0 1008.9 1007.9 11.4
25/07:30pm 6.8 5.9 5.9 94 0.4 CALM 0 0 0 0 1008.8 1007.8 11.4
25/07:00pm 7.3 6.5 6.4 94 0.4 CALM 0 0 0 0 1008.5 1007.5 11.4
25/06:30pm 7.9 7.2 7.0 94 0.4 CALM 0 0 0 0 1008.1 1007.0 11.4
25/06:00pm 8.3 7.6 7.1 92 0.6 CALM 0 0 0 0 1008.0 1006.9 11.2
25/05:30pm 8.5 7.9 7.6 94 0.4 CALM 0 0 0 0 1007.9 1006.8 11.2
25/05:00pm 8.6 8.1 7.7 94 0.4 CALM 0 4 0 2 1008.3 1007.2 11.2
25/04:30pm 8.5 6.6 7.4 93 0.5 W 7 9 4 5 1007.6 1006.6 10.6
25/04:00pm 8.8 7.1 7.4 91 0.7 WNW 6 13 3 7 1008.2 1007.1 10.0
25/03:30pm 8.8 6.8 7.3 90 0.7 SSE 7 9 4 5 1007.4 1006.4 9.8
25/03:00pm 8.8 7.7 6.8 87 1.0 N 2 6 1 3 1008.7 1007.7 9.2
25/02:31pm 8.5 2.1 5.3 80 1.5 WNW 28 46 15 25 1007.8 1006.7 7.8
25/02:30pm 8.1 1.3 4.9 80 1.5 WNW 30 46 16 25 1007.9 1006.8 7.4
25/02:21pm 11.5 7.4 6.2 70 2.6 NNE 17 46 9 25 1007.9 1006.8 4.4
25/02:00pm 10.4 8.1 7.6 83 1.4 WNW 9 22 5 12 1007.4 1006.4 3.8
25/01:30pm 14.7 12.9 9.5 71 2.8 ENE 9 13 5 7 1006.5 1005.4 0.0
25/01:00pm 16.5 15.0 6.6 52 5.1 NNE 4 6 2 3 1007.0 1005.9 0.0
25/12:30pm 17.2 16.6 7.3 52 5.1 CALM 0 4 0 2 1007.4 1006.4 0.0
25/12:00pm 17.1 16.3 6.6 50 5.4 CALM 0 0 0 0 1007.9 1006.8 0.0
25/11:30am 17.2 16.4 6.4 49 5.5 CALM 0 2 0 1 1008.4 1007.4 0.0
25/11:00am 16.3 15.8 8.0 58 4.3 CALM 0 0 0 0 1008.7 1007.7 0.0
25/10:30am 15.1 14.4 6.9 58 4.2 CALM 0 0 0 0 1008.9 1007.9 0.0
25/10:00am 14.8 14.5 8.5 66 3.3 CALM 0 0 0 0 1009.1 1008.1 0.0
25/09:30am 13.4 12.4 7.4 67 3.0 NW 2 6 1 3 1009.4 1008.3 0.0
25/09:00am 12.9 12.4 8.0 72 2.5 CALM 0 0 0 0 1009.5 1008.4 0.0
25/08:30am 11.8 11.7 9.4 85 1.3 CALM 0 0 0 0 1009.5 1008.4 0.0
25/08:00am 9.5 9.0 7.9 90 0.8 CALM 0 0 0 0 1009.4 1008.3 0.0
25/07:30am 8.0 7.3 7.1 94 0.4 CALM 0 0 0 0 1009.0 1008.0 0.0
25/07:00am 5.5 4.3 4.6 94 0.4 CALM 0 0 0 0 1008.9 1007.9 0.0
25/06:30am 5.3 3.9 3.8 90 0.7 CALM 0 0 0 0 1008.7 1007.7 0.0
25/06:00am 6.2 4.9 3.9 85 1.0 CALM 0 0 0 0 1008.3 1007.2 0.0
25/05:30am 8.6 5.3 6.4 86 1.1 WNW 13 15 7 8 1008.0 1006.9 0.0
25/05:00am 6.2 5.1 5.3 94 0.4 CALM 0 0 0 0 1008.1 1007.0 0.0
25/04:30am 6.7 5.7 5.8 94 0.4 CALM 0 0 0 0 1007.9 1006.8 0.0
25/04:00am 6.7 5.8 6.0 95 0.3 CALM 0 0 0 0 1007.5 1006.5 0.0
25/03:30am 7.1 6.2 6.0 93 0.5 CALM 0 0 0 0 1007.4 1006.4 0.0
25/03:00am 7.4 6.5 6.0 91 0.7 CALM 0 0 0 0 1007.6 1006.6 0.0
25/02:30am 8.2 7.1 7.1 93 0.5 NNE 2 7 1 4 1007.8 1006.7 0.0
25/02:00am 8.4 6.5 6.7 89 0.8 NW 6 7 3 4 1008.0 1006.9 0.0
25/01:30am 8.6 7.5 6.9 89 0.8 WNW 2 6 1 3 1008.2 1007.1 0.0
25/01:00am 8.5 7.8 7.0 90 0.7 CALM 0 4 0 2 1008.3 1007.2 0.0
25/12:30am 8.8 8.2 7.6 92 0.6 CALM 0 6 0 3 1008.3 1007.2 0.0
25/12:00am 8.9 8.3 7.5 91 0.7 CALM 0 0 0 0 1008.3 1007.2 0.0
 
Date/Time
EST
Temp
°C
App
Temp
°C
Dew
Point
Rel
Hum
%
Delta-T
°C
Wind Press
QNH
hPa
Press
MSL
hPa
Rain
since 9 am
mm
Dir
 
Spd
km/h
Gust
km/h
Spd
kts
Gust
kts
24/11:30pm 8.7 7.7 7.5 92 0.6 WNW 2 7 1 4 1008.4 1007.4 0.0
24/11:00pm 8.5 6.9 6.5 87 1.0 W 4 6 2 3 1008.3 1007.2 0.0
24/10:30pm 9.9 9.4 7.8 87 1.0 CALM 0 0 0 0 1008.2 1007.1 0.0
24/10:00pm 11.1 9.5 8.8 86 1.2 NW 7 9 4 5 1008.3 1007.2 0.0
24/09:30pm 11.4 9.6 9.3 87 1.1 NW 9 13 5 7 1008.1 1007.0 0.0
24/09:00pm 11.6 9.8 9.5 87 1.1 NW 9 13 5 7 1007.8 1006.7 0.0
24/08:30pm 12.0 10.6 9.4 84 1.4 NW 7 11 4 6 1007.8 1006.7 0.0
24/08:00pm 12.4 10.6 9.6 83 1.5 NW 9 15 5 8 1007.6 1006.6 0.0
24/07:30pm 12.3 10.8 9.3 82 1.6 NNW 7 13 4 7 1007.5 1006.5 0.0
24/07:00pm 12.9 11.1 9.5 80 1.8 NW 9 13 5 7 1007.5 1006.5 0.0
24/06:30pm 13.0 11.2 9.3 78 1.9 NNW 9 13 5 7 1007.2 1006.2 0.0
24/06:00pm 13.5 11.9 8.8 73 2.5 NW 7 11 4 6 1007.1 1006.1 0.0
24/05:30pm 14.1 11.7 8.7 70 2.8 WNW 11 19 6 10 1006.9 1005.8 0.0
24/05:00pm 15.2 12.2 9.1 67 3.2 WNW 15 30 8 16 1006.8 1005.7 0.0
24/04:30pm 15.3 11.3 9.0 66 3.3 WNW 20 32 11 17 1006.5 1005.4 0.0
24/04:00pm 15.4 10.7 9.3 67 3.3 WNW 24 33 13 18 1006.3 1005.2 0.0
24/03:30pm 15.6 10.8 10.2 70 2.9 NW 26 35 14 19 1006.0 1005.0 0.0
24/03:00pm 16.8 13.3 10.9 68 3.3 NW 20 32 11 17 1005.9 1004.9 0.0
24/02:30pm 16.1 12.7 10.4 69 3.1 NW 19 26 10 14 1006.0 1005.0 0.0
24/02:00pm 16.6 13.1 10.9 69 3.2 NW 20 33 11 18 1005.9 1004.9 0.0
24/01:30pm 17.3 13.4 10.9 66 3.6 NW 22 33 12 18 1005.8 1004.8 0.0
24/01:00pm 17.1 13.2 10.7 66 3.6 NW 22 39 12 21 1005.9 1004.9 0.0
24/12:30pm 17.8 14.8 11.8 68 3.4 NW 19 33 10 18 1006.4 1005.3 0.0
24/12:00pm 17.0 13.5 10.8 67 3.4 NW 20 35 11 19 1006.7 1005.6 0.0
24/11:30am 17.6 14.2 11.2 66 3.6 NW 20 33 11 18 1007.1 1006.1 0.0
24/11:00am 17.3 12.7 10.9 66 3.6 NW 26 41 14 22 1007.4 1006.4 0.0
24/10:30am 17.1 13.6 10.2 64 3.8 NW 19 32 10 17 1007.5 1006.5 0.0
24/10:00am 16.9 14.6 11.6 71 3.0 NW 15 22 8 12 1007.5 1006.5 0.0
24/09:30am 16.5 15.3 12.8 79 2.1 NW 11 22 6 12 1007.9 1006.8 0.0
24/09:00am 15.1 14.0 13.0 87 1.2 NNW 11 19 6 10 1008.1 1007.0 1.4
24/08:30am 12.9 11.8 11.8 93 0.6 NNW 9 17 5 9 1008.3 1007.2 1.4
24/08:00am 13.1 12.8 12.6 97 0.3 N 6 13 3 7 1008.2 1007.1 1.4
24/07:30am 11.4 10.9 10.9 97 0.3 N 4 7 2 4 1008.2 1007.1 1.4
24/07:00am 10.4 10.0 9.8 96 0.3 N 2 6 1 3 1008.2 1007.1 1.4
24/06:30am 10.3 9.9 9.7 96 0.3 N 2 4 1 2 1007.9 1006.8 1.4
24/06:00am 10.7 10.4 10.2 97 0.3 N 2 6 1 3 1008.2 1007.1 1.4
24/05:30am 10.7 10.0 10.1 96 0.3 N 4 9 2 5 1008.2 1007.1 1.4
24/05:00am 10.8 10.9 10.3 97 0.3 CALM 0 0 0 0 1008.2 1007.1 1.4
24/04:30am 10.7 10.8 10.1 96 0.3 CALM 0 0 0 0 1008.4 1007.4 1.4
24/04:00am 10.5 10.1 9.9 96 0.3 NNE 2 4 1 2 1008.7 1007.7 1.4
24/03:30am 10.4 10.4 9.8 96 0.3 CALM 0 0 0 0 1008.8 1007.8 1.4
24/03:00am 10.5 10.5 9.9 96 0.3 CALM 0 0 0 0 1009.0 1008.0 1.4
24/02:30am 10.2 10.1 9.6 96 0.3 CALM 0 0 0 0 1009.5 1008.4 1.4
24/02:00am 9.8 9.6 9.2 96 0.3 CALM 0 0 0 0 1009.7 1008.6 1.4
24/01:30am 9.8 9.3 9.2 96 0.3 S 2 2 1 1 1009.9 1008.9 1.2
24/01:00am 9.8 8.9 9.2 96 0.3 SE 4 6 2 3 1010.3 1009.3 1.2
24/12:30am 10.0 9.9 9.4 96 0.3 CALM 0 0 0 0 1010.7 1009.7 1.2
24/12:00am 10.1 10.0 9.5 96 0.3 CALM 0 0 0 0 1011.1 1010.1 1.2
 
Date/Time
EST
Temp
°C
App
Temp
°C
Dew
Point
Rel
Hum
%
Delta-T
°C
Wind Press
QNH
hPa
Press
MSL
hPa
Rain
since 9 am
mm
Dir
 
Spd
km/h
Gust
km/h
Spd
kts
Gust
kts
23/11:30pm 9.7 9.5 9.1 96 0.3 CALM 0 0 0 0 1011.2 1010.2 1.2
23/11:00pm 9.5 9.3 8.9 96 0.3 CALM 0 0 0 0 1011.4 1010.4 1.2
23/10:30pm 9.8 9.6 9.0 95 0.4 CALM 0 0 0 0 1011.9 1010.9 1.2
23/10:00pm 10.4 10.4 9.8 96 0.3 CALM 0 0 0 0 1012.3 1011.4 1.2
23/09:30pm 11.1 11.3 10.5 96 0.3 CALM 0 0 0 0 1012.4 1011.5 1.2
23/09:00pm 10.9 11.0 10.1 95 0.4 CALM 0 0 0 0 1012.7 1011.7 1.2
23/08:30pm 10.8 10.9 10.0 95 0.4 CALM 0 2 0 1 1012.9 1011.9 1.2
23/08:00pm 11.4 10.5 10.5 94 0.5 S 6 6 3 3 1012.9 1011.9 1.2
23/07:30pm 11.9 11.9 11.0 94 0.5 SE 2 4 1 2 1012.8 1011.8 1.2
23/07:00pm 12.1 12.0 10.8 92 0.7 ESE 2 7 1 4 1012.8 1011.8 1.2
23/06:30pm 13.0 12.7 11.6 91 0.8 SE 4 6 2 3 1012.6 1011.6 1.2
23/06:00pm 12.8 12.5 11.4 91 0.8 SSE 4 7 2 4 1012.1 1011.1 1.2
23/05:30pm 13.2 12.4 11.1 87 1.1 SE 6 7 3 4 1012.0 1011.0 1.2
23/05:00pm 14.3 14.0 11.5 83 1.6 SE 4 6 2 3 1011.9 1010.9 1.2
23/04:30pm 15.8 14.7 11.8 77 2.2 ESE 9 15 5 8 1011.7 1010.7 1.2
23/04:00pm 14.6 13.3 12.5 87 1.2 E 11 19 6 10 1011.8 1010.8 1.2
23/03:30pm 17.8 16.3 11.8 68 3.4 SE 11 15 6 8 1011.9 1010.9 1.2
23/03:00pm 17.0 16.1 11.5 70 3.1 SE 7 13 4 7 1011.8 1010.8 1.2
23/02:30pm 18.0 17.2 12.9 72 2.9 ESE 9 17 5 9 1012.0 1011.0 1.2
23/02:00pm 16.7 15.7 13.4 81 1.9 SE 11 15 6 8 1012.1 1011.1 1.2
23/01:30pm 16.0 16.1 14.4 90 0.9 SSE 7 9 4 5 1012.3 1011.4 1.2
23/01:00pm 14.6 13.9 13.3 92 0.7 SE 9 13 5 7 1012.7 1011.7 1.2
23/12:30pm 14.7 11.4 11.5 81 1.8 SE 20 28 11 15 1013.0 1012.0 0.0
23/12:00pm 17.9 15.7 13.2 74 2.7 S 17 24 9 13 1013.2 1012.2 0.0
23/11:30am 17.6 15.0 13.1 75 2.6 S 19 26 10 14 1013.8 1012.9 0.0
23/11:00am 17.2 15.1 13.5 79 2.2 S 17 24 9 13 1014.0 1013.1 0.0
23/10:30am 16.9 14.6 14.0 83 1.7 SSE 19 24 10 13 1014.3 1013.3 0.0
23/10:00am 16.0 13.9 13.5 85 1.4 S 17 24 9 13 1014.6 1013.6 0.0
23/09:30am 15.4 13.9 14.1 92 0.8 S 15 24 8 13 1014.8 1013.8 0.0
23/09:00am 14.7 13.4 13.6 93 0.6 S 13 17 7 9 1015.0 1014.1 13.6
23/08:30am 14.4 13.8 13.4 94 0.6 S 9 15 5 8 1015.0 1014.1 13.6
23/08:00am 14.2 13.2 13.4 95 0.5 SSW 11 19 6 10 1015.0 1014.1 13.6
23/07:30am 13.5 12.7 12.9 96 0.3 S 9 15 5 8 1015.0 1014.1 13.6
23/07:00am 13.1 11.8 12.5 96 0.3 S 11 17 6 9 1014.7 1013.7 13.6
23/06:30am 12.8 10.6 12.2 96 0.3 S 15 20 8 11 1014.4 1013.4 13.4
23/06:00am 12.8 11.4 12.2 96 0.3 S 11 17 6 9 1014.0 1013.1 13.4
23/05:30am 12.6 11.5 12.0 96 0.3 S 9 13 5 7 1013.9 1013.0 13.4
23/05:00am 12.5 11.0 11.9 96 0.3 SSE 11 19 6 10 1013.7 1012.8 13.4
23/04:30am 12.5 10.6 11.9 96 0.3 S 13 17 7 9 1013.7 1012.8 13.4
23/04:00am 12.5 10.6 11.9 96 0.3 S 13 19 7 10 1013.7 1012.8 13.2
23/03:30am 12.3 11.1 11.5 95 0.4 S 9 13 5 7 1013.8 1012.9 13.0
23/03:00am 12.3 10.0 11.7 96 0.3 SSW 15 20 8 11 1013.8 1012.9 13.0
23/02:30am 12.0 11.1 11.2 95 0.4 SSW 7 13 4 7 1014.2 1013.2 13.0
23/02:00am 12.4 10.8 11.6 95 0.4 SSW 11 19 6 10 1014.5 1013.5 13.0
23/01:30am 12.3 10.2 11.2 93 0.6 SSW 13 17 7 9 1014.5 1013.5 12.8
23/01:00am 12.5 10.1 11.4 93 0.6 S 15 20 8 11 1014.5 1013.5 12.8
23/12:30am 12.3 10.1 10.9 91 0.8 SSW 13 19 7 10 1014.8 1013.8 12.8
23/12:00am 12.3 9.8 11.2 93 0.6 S 15 20 8 11 1015.1 1014.2 12.8
 
Date/Time
EST
Temp
°C
App
Temp
°C
Dew
Point
Rel
Hum
%
Delta-T
°C
Wind Press
QNH
hPa
Press
MSL
hPa
Rain
since 9 am
mm
Dir
 
Spd
km/h
Gust
km/h
Spd
kts
Gust
kts
22/11:30pm 12.1 10.3 11.0 93 0.6 SSE 11 20 6 11 1015.0 1014.1 12.8
22/11:00pm 12.0 9.8 10.9 93 0.6 SSE 13 24 7 13 1015.1 1014.2 12.6
22/10:30pm 12.9 7.6 11.3 90 0.9 S 30 46 16 25 1014.9 1013.9 12.6
22/10:08pm 13.2 8.5 11.9 92 0.7 S 28 52 15 28 1015.2 1014.3 12.4
22/10:00pm 13.0 9.9 12.1 94 0.5 S 20 37 11 20 1015.3 1014.4 12.4
22/09:30pm 12.7 9.7 11.9 95 0.4 S 19 26 10 14 1015.8 1014.8 12.2

Other Formats:

Comma delimited format used in spreadsheet applications
http://www.bom.gov.au/fwo/IDN60801/IDN60801.94927.axf

JavaScript Object Notation format (JSON) in row-major order
http://www.bom.gov.au/fwo/IDN60801/IDN60801.94927.json